Time;durP1;ratioP1;P1;durP2;ratioP2;P2;SDS_P1;SDS_P2;PMS_P1;PMS_P2;Temp;Humidity;BMP_temperature;BMP_pressure;BME280_temperature;BME280_humidity;BME280_pressure;Samples;Min_cycle;Max_cycle;Signal;HPM_P1;HPM_P2
2022/04/22 00:00:08;;;;;;;6.15;5.30;;;10.80;93.30;;;;;;5054076;28;20207;-86
2022/04/22 00:02:34;;;;;;;5.95;5.10;;;10.40;93.20;;;;;;5057394;28;20609;-86
2022/04/22 00:05:00;;;;;;;6.32;5.30;;;10.90;93.50;;;;;;5060842;28;20190;-86
2022/04/22 00:07:28;;;;;;;5.47;4.97;;;10.30;93.40;;;;;;5055712;28;20221;-86
2022/04/22 00:09:54;;;;;;;5.38;4.88;;;10.60;93.70;;;;;;5061527;28;20809;-85
2022/04/22 00:12:19;;;;;;;5.50;5.10;;;10.40;93.60;;;;;;5063641;28;20661;-86
2022/04/22 00:14:45;;;;;;;5.07;4.57;;;10.30;93.80;;;;;;5060440;28;20265;-86
2022/04/22 00:17:11;;;;;;;5.87;5.37;;;10.20;94.00;;;;;;5051723;28;20180;-86
2022/04/22 00:19:36;;;;;;;5.20;4.70;;;10.50;94.20;;;;;;5071668;28;20696;-86
2022/04/22 00:22:02;;;;;;;5.87;5.37;;;10.50;94.20;;;;;;5071831;28;20198;-86
2022/04/22 00:24:27;;;;;;;5.33;4.83;;;10.50;94.40;;;;;;5073031;28;20674;-86
2022/04/22 00:26:53;;;;;;;6.03;5.43;;;10.60;94.40;;;;;;5052708;28;20732;-86
2022/04/22 00:29:18;;;;;;;5.70;5.20;;;10.30;94.20;;;;;;5058844;28;20623;-86
2022/04/22 00:31:44;;;;;;;6.30;5.70;;;10.70;94.60;;;;;;5054670;28;20189;-87
2022/04/22 00:34:09;;;;;;;6.40;5.67;;;10.50;94.60;;;;;;5072934;28;20185;-86
2022/04/22 00:36:35;;;;;;;5.77;5.27;;;10.70;95.00;;;;;;5049892;28;20635;-86
2022/04/22 00:39:01;;;;;;;6.23;5.63;;;10.30;95.00;;;;;;5072839;28;20305;-87
2022/04/22 00:41:27;;;;;;;6.45;5.70;;;10.10;95.10;;;;;;5061987;28;20232;-87
2022/04/22 00:43:53;;;;;;;6.97;5.33;;;10.30;95.60;;;;;;5061085;28;20580;-86
2022/04/22 00:46:18;;;;;;;9.43;5.67;;;10.20;95.70;;;;;;5045784;28;20187;-87
2022/04/22 00:48:44;;;;;;;5.50;5.00;;;9.90;96.10;;;;;;5082788;28;20471;-85
2022/04/22 00:51:11;;;;;;;6.17;5.57;;;9.90;96.40;;;;;;5066451;28;20183;-87
2022/04/22 00:53:38;;;;;;;6.03;5.43;;;10.00;96.10;;;;;;5073682;28;20670;-86
2022/04/22 00:56:06;;;;;;;5.70;5.20;;;10.40;96.50;;;;;;5066461;28;20174;-86
2022/04/22 00:58:35;;;;;;;5.80;5.30;;;10.30;96.50;;;;;;5066514;28;20197;-87
2022/04/22 01:01:00;;;;;;;6.32;5.30;;;10.30;96.50;;;;;;5081640;28;20172;-86
2022/04/22 01:03:26;;;;;;;9.23;5.77;;;9.80;97.00;;;;;;5058825;28;20281;-86
2022/04/22 01:11:22;;;;;;;7.90;7.20;;;9.40;97.20;;;;;;5070266;28;20716;-86
2022/04/22 01:13:47;;;;;;;7.20;6.50;;;9.90;97.60;;;;;;5054415;28;20216;-86
2022/04/22 01:16:13;;;;;;;7.53;6.80;;;10.00;97.20;;;;;;5050428;28;20191;-86
2022/04/22 01:18:38;;;;;;;6.70;6.10;;;9.70;97.70;;;;;;5053483;28;20216;-86
2022/04/22 01:21:04;;;;;;;7.43;6.73;;;9.70;97.90;;;;;;5070278;28;20196;-86
2022/04/22 01:23:29;;;;;;;7.27;6.17;;;9.80;98.00;;;;;;5060116;28;20186;-86
2022/04/22 01:25:56;;;;;;;7.13;6.33;;;10.00;97.70;;;;;;5074366;28;20208;-87
2022/04/22 01:28:23;;;;;;;6.22;5.63;;;10.10;98.00;;;;;;5083636;28;20426;-86
2022/04/22 01:30:54;;;;;;;6.82;6.13;;;10.00;97.90;;;;;;5073414;28;20196;-85
2022/04/22 01:33:20;;;;;;;6.53;5.93;;;9.80;98.60;;;;;;5062547;28;20208;-86
2022/04/22 01:35:45;;;;;;;7.50;6.70;;;9.80;98.40;;;;;;5070271;28;20656;-85
2022/04/22 01:38:11;;;;;;;7.93;6.57;;;9.90;98.30;;;;;;5058206;28;20188;-86
2022/04/22 01:40:36;;;;;;;7.10;6.50;;;9.90;98.30;;;;;;5053124;28;20468;-86
2022/04/22 01:43:04;;;;;;;8.13;6.33;;;;;;;;;;5049624;28;20189;-86
2022/04/22 01:45:30;;;;;;;7.15;6.25;;;9.60;98.30;;;;;;5050921;28;20231;-86
2022/04/22 01:47:56;;;;;;;8.33;7.50;;;9.80;98.70;;;;;;5060280;28;20205;-87
2022/04/22 01:50:22;;;;;;;7.28;6.60;;;9.80;99.00;;;;;;5053962;28;20194;-86
2022/04/22 01:52:47;;;;;;;8.17;7.37;;;9.60;98.90;;;;;;5060901;28;20217;-86
2022/04/22 01:55:13;;;;;;;8.00;6.93;;;9.70;99.00;;;;;;5057944;28;20272;-86
2022/04/22 01:57:38;;;;;;;7.03;6.33;;;9.80;99.20;;;;;;5057937;28;20185;-86
2022/04/22 02:00:04;;;;;;;7.27;6.57;;;9.70;99.20;;;;;;5056927;28;20244;-86
2022/04/22 02:02:30;;;;;;;7.03;6.32;;;9.80;99.40;;;;;;5062403;28;20556;-86
2022/04/22 02:04:56;;;;;;;7.10;6.40;;;9.80;99.60;;;;;;5057958;28;20269;-85
2022/04/22 02:07:21;;;;;;;7.30;6.67;;;9.50;99.40;;;;;;5075575;28;20188;-86
2022/04/22 02:09:47;;;;;;;10.67;7.80;;;9.90;99.70;;;;;;5058000;28;20262;-86
2022/04/22 02:12:13;;;;;;;7.30;6.60;;;10.00;99.30;;;;;;5062512;28;20201;-86
2022/04/22 02:14:38;;;;;;;9.00;7.75;;;9.50;99.90;;;;;;5070750;28;20169;-86
2022/04/22 02:17:04;;;;;;;8.00;7.20;;;9.30;99.90;;;;;;5038766;28;20360;-86
2022/04/22 02:19:31;;;;;;;7.70;6.90;;;9.50;99.90;;;;;;5073184;28;20583;-86
2022/04/22 02:21:57;;;;;;;8.52;7.72;;;9.20;99.90;;;;;;5057593;28;20442;-85
2022/04/22 02:24:23;;;;;;;11.47;8.00;;;9.40;99.90;;;;;;5053665;28;20177;-86
2022/04/22 02:29:33;;;;;;;8.75;7.95;;;9.20;99.90;;;;;;5075583;28;20223;-87
2022/04/22 02:31:59;;;;;;;8.57;7.70;;;9.20;99.90;;;;;;5064120;28;20183;-86
2022/04/22 02:34:25;;;;;;;9.45;8.55;;;9.20;99.90;;;;;;5058155;28;20189;-86
2022/04/22 02:36:51;;;;;;;9.60;8.67;;;9.40;99.90;;;;;;5084616;28;20184;-85
2022/04/22 02:39:17;;;;;;;9.50;8.50;;;9.20;99.90;;;;;;5079089;28;20251;-86
2022/04/22 02:47:12;;;;;;;9.32;7.78;;;9.40;99.90;;;;;;5069057;28;20234;-86
2022/04/22 02:49:38;;;;;;;12.73;7.90;;;8.90;99.90;;;;;;5067649;28;20283;-86
2022/04/22 02:52:04;;;;;;;10.15;8.75;;;8.90;99.90;;;;;;5055682;28;20208;-86
2022/04/22 02:54:30;;;;;;;8.95;8.07;;;8.90;99.90;;;;;;5073002;28;20176;-86
2022/04/22 02:56:57;;;;;;;9.10;8.20;;;8.80;99.90;;;;;;5077604;28;20181;-86
2022/04/22 02:59:23;;;;;;;9.82;8.82;;;8.60;99.90;;;;;;5055630;28;20201;-86
2022/04/22 03:01:49;;;;;;;9.68;8.77;;;;;;;;;;5063670;28;20314;-86
2022/04/22 03:04:15;;;;;;;16.30;11.07;;;8.60;99.90;;;;;;5075229;28;20218;-86
2022/04/22 03:06:41;;;;;;;10.50;9.40;;;9.10;99.90;;;;;;5071965;28;20200;-86
2022/04/22 03:09:07;;;;;;;10.93;9.83;;;8.60;99.90;;;;;;5072664;28;20455;-86
2022/04/22 03:11:34;;;;;;;10.83;9.53;;;8.70;99.90;;;;;;5062691;28;20538;-86
2022/04/22 03:13:59;;;;;;;10.82;9.68;;;8.90;99.90;;;;;;5065482;28;20208;-86
2022/04/22 03:16:26;;;;;;;9.80;8.90;;;8.20;99.90;;;;;;5057582;28;20185;-86
2022/04/22 03:18:51;;;;;;;10.80;9.70;;;9.00;99.90;;;;;;5057143;28;20712;-86
2022/04/22 03:21:17;;;;;;;14.90;10.50;;;8.40;99.90;;;;;;5058560;28;20212;-87
2022/04/22 03:23:42;;;;;;;11.60;10.00;;;9.00;99.90;;;;;;5060908;28;20189;-86
2022/04/22 03:26:08;;;;;;;12.33;10.30;;;8.30;99.90;;;;;;5067918;28;20192;-87
2022/04/22 03:28:34;;;;;;;10.90;9.90;;;9.30;99.90;;;;;;5073474;28;20220;-86
2022/04/22 03:30:59;;;;;;;10.53;9.47;;;8.40;99.90;;;;;;5043245;28;20243;-86
2022/04/22 03:33:25;;;;;;;10.50;9.50;;;8.50;99.90;;;;;;5063131;28;20474;-86
2022/04/22 03:35:51;;;;;;;12.07;10.00;;;8.80;99.90;;;;;;5058633;28;20657;-86
2022/04/22 03:38:19;;;;;;;9.90;8.90;;;8.20;99.90;;;;;;5048455;28;20197;-86
2022/04/22 03:40:45;;;;;;;11.88;10.75;;;8.50;99.90;;;;;;5051956;28;20280;-86
2022/04/22 03:43:10;;;;;;;11.95;10.35;;;8.30;99.90;;;;;;5053052;28;20259;-86
2022/04/22 03:45:36;;;;;;;12.57;11.27;;;8.70;99.90;;;;;;5058364;28;20653;-86
2022/04/22 03:48:08;;;;;;;12.20;10.90;;;8.10;99.90;;;;;;5050107;28;20197;-88
2022/04/22 03:50:34;;;;;;;12.00;10.70;;;8.20;99.90;;;;;;5055283;28;20188;-86
2022/04/22 03:53:00;;;;;;;13.23;11.65;;;8.10;99.90;;;;;;5068433;28;20200;-87
2022/04/22 03:55:26;;;;;;;14.27;11.70;;;8.30;99.90;;;;;;5058036;28;20192;-86
2022/04/22 04:00:46;;;;;;;13.57;11.13;;;8.10;99.90;;;;;;5070372;28;20224;-86
2022/04/22 04:03:13;;;;;;;11.77;10.63;;;8.20;99.90;;;;;;5068545;28;20185;-86
2022/04/22 04:05:41;;;;;;;13.32;11.77;;;8.30;99.90;;;;;;5055619;28;20338;-87
2022/04/22 04:08:10;;;;;;;14.38;11.77;;;8.30;99.90;;;;;;5044108;28;20180;-86
2022/04/22 04:16:05;;;;;;;14.70;12.45;;;8.40;99.90;;;;;;5069672;28;20231;-86
2022/04/22 04:18:32;;;;;;;14.40;12.07;;;8.20;99.90;;;;;;5051862;28;20221;-87
2022/04/22 04:23:43;;;;;;;13.93;11.23;;;8.00;99.90;;;;;;5073794;28;20214;-86
2022/04/22 04:26:09;;;;;;;12.57;9.37;;;7.60;99.90;;;;;;5064624;28;20184;-87
2022/04/22 04:28:37;;;;;;;11.75;10.45;;;7.80;99.90;;;;;;5064686;28;20212;-87
2022/04/22 04:31:04;;;;;;;11.95;10.38;;;7.90;99.90;;;;;;5055921;28;20192;-87
2022/04/22 04:33:30;;;;;;;12.07;10.82;;;8.20;99.90;;;;;;5073814;28;20234;-86
2022/04/22 04:35:56;;;;;;;14.60;12.25;;;7.80;99.90;;;;;;5074703;28;20214;-86
2022/04/22 04:38:22;;;;;;;13.77;12.33;;;7.80;99.90;;;;;;5089279;28;20213;-86
2022/04/22 04:40:48;;;;;;;12.35;10.30;;;7.80;99.90;;;;;;5064825;28;20427;-88
2022/04/22 04:43:14;;;;;;;10.60;9.45;;;7.70;99.90;;;;;;5078351;28;20708;-87
2022/04/22 04:45:40;;;;;;;12.02;10.48;;;8.00;99.90;;;;;;5063362;28;20637;-88
2022/04/22 04:48:07;;;;;;;12.70;10.73;;;7.60;99.90;;;;;;5082805;28;20174;-87
2022/04/22 04:50:32;;;;;;;13.15;10.63;;;7.70;99.90;;;;;;5086066;28;20872;-87
2022/04/22 04:52:58;;;;;;;12.60;9.90;;;7.50;99.90;;;;;;5081496;28;20205;-86
2022/04/22 04:55:24;;;;;;;12.00;9.93;;;7.80;99.90;;;;;;5085616;28;20216;-87
2022/04/22 04:57:49;;;;;;;13.20;11.80;;;7.30;99.90;;;;;;5051959;28;20222;-88
2022/04/22 05:00:20;;;;;;;14.63;11.10;;;7.40;99.90;;;;;;5052300;28;20338;-87
2022/04/22 05:02:46;;;;;;;11.63;10.32;;;7.40;99.90;;;;;;5051594;28;20252;-88
2022/04/22 05:05:12;;;;;;;15.35;12.95;;;7.60;99.90;;;;;;5059505;28;20198;-87
2022/04/22 05:07:57;;;;;;;13.10;10.40;;;7.50;99.90;;;;;;5059462;28;20192;-88
2022/04/22 05:10:30;;;;;;;14.00;11.57;;;7.70;99.90;;;;;;5042232;28;20196;-88
2022/04/22 05:12:56;;;;;;;13.15;10.90;;;7.50;99.90;;;;;;5042233;28;20212;-87
2022/04/22 05:15:23;;;;;;;13.27;11.88;;;7.30;99.90;;;;;;5051623;28;20181;-87
2022/04/22 05:17:49;;;;;;;14.13;12.38;;;7.50;99.90;;;;;;5051122;28;20212;-87
2022/04/22 05:20:20;;;;;;;15.95;12.30;;;7.60;99.90;;;;;;5073103;28;20229;-87
2022/04/22 05:22:46;;;;;;;14.40;11.82;;;7.70;99.90;;;;;;5054546;28;20202;-87
2022/04/22 05:25:13;;;;;;;13.48;11.48;;;7.80;99.90;;;;;;5063577;28;20212;-87
2022/04/22 05:27:39;;;;;;;16.27;12.75;;;8.20;99.90;;;;;;5066159;28;20188;-87
2022/04/22 05:32:52;;;;;;;15.43;11.88;;;8.20;99.90;;;;;;5068893;28;20219;-86
2022/04/22 05:35:19;;;;;;;18.17;13.17;;;8.10;99.90;;;;;;5054645;28;20264;-86
2022/04/22 05:37:54;;;;;;;14.10;11.85;;;8.20;99.90;;;;;;5058993;28;20431;-86
2022/04/22 05:40:21;;;;;;;17.58;14.02;;;8.50;99.90;;;;;;5056725;28;20664;-86
2022/04/22 05:42:48;;;;;;;20.80;16.60;;;9.10;99.90;;;;;;5048453;28;20472;-86
2022/04/22 05:45:16;;;;;;;18.77;14.95;;;9.10;99.90;;;;;;5060945;28;20209;-86
2022/04/22 05:47:42;;;;;;;17.90;14.95;;;9.00;99.90;;;;;;5049887;28;20193;-86
2022/04/22 05:50:09;;;;;;;24.85;17.17;;;8.20;99.90;;;;;;5061506;28;20196;-86
2022/04/22 05:52:37;;;;;;;21.23;16.13;;;9.10;99.90;;;;;;5066782;28;20209;-86
2022/04/22 05:55:05;;;;;;;18.67;15.02;;;9.00;99.90;;;;;;5048436;28;20675;-86
2022/04/22 05:57:31;;;;;;;19.85;15.95;;;9.00;99.90;;;;;;5072124;28;20192;-86
2022/04/22 05:59:58;;;;;;;18.77;16.45;;;9.50;99.90;;;;;;5061776;28;20220;-85
2022/04/22 06:02:24;;;;;;;20.42;16.77;;;9.80;99.90;;;;;;5066041;28;20182;-86
2022/04/22 06:04:50;;;;;;;18.80;16.03;;;9.50;99.90;;;;;;5051271;28;20243;-86
2022/04/22 06:07:16;;;;;;;20.30;16.70;;;10.00;99.90;;;;;;5059651;28;20921;-87
2022/04/22 06:12:25;;;;;;;20.23;16.27;;;9.90;99.90;;;;;;5059393;28;20260;-85
2022/04/22 06:14:51;;;;;;;19.53;15.03;;;10.80;99.90;;;;;;5052287;28;20641;-86
2022/04/22 06:17:16;;;;;;;21.57;16.00;;;10.70;99.90;;;;;;5059020;28;20194;-86
2022/04/22 06:19:42;;;;;;;19.10;15.87;;;10.50;99.60;;;;;;5043045;28;20215;-86
2022/04/22 06:22:08;;;;;;;19.30;16.60;;;10.70;99.40;;;;;;5063325;28;20641;-86
2022/04/22 06:24:33;;;;;;;22.20;16.23;;;10.70;98.80;;;;;;5053871;28;20186;-86
2022/04/22 06:26:59;;;;;;;19.97;16.60;;;11.10;98.80;;;;;;5040168;28;20404;-87
2022/04/22 06:29:25;;;;;;;18.30;16.37;;;10.90;98.40;;;;;;5063144;28;20222;-87
2022/04/22 06:31:51;;;;;;;20.83;17.30;;;11.60;97.60;;;;;;5053715;28;20183;-87
2022/04/22 06:34:17;;;;;;;19.25;15.90;;;11.60;96.90;;;;;;5055738;28;20205;-88
2022/04/22 06:36:43;;;;;;;20.47;15.53;;;11.10;97.40;;;;;;5067902;28;20179;-88
2022/04/22 06:39:08;;;;;;;18.50;16.50;;;12.40;97.90;;;;;;5064136;28;20527;-85
2022/04/22 06:45:46;;;;;;;21.08;16.50;;;12.50;95.90;;;;;;5072706;28;20442;-87
2022/04/22 06:47:13;;;;;;;18.42;15.88;;;12.70;94.60;;;;;;5074537;28;20188;-87
2022/04/22 06:49:40;;;;;;;16.02;14.32;;;13.60;93.30;;;;;;5058229;28;20216;-85
2022/04/22 06:52:06;;;;;;;16.50;14.80;;;14.30;91.40;;;;;;5057361;28;20227;-86
2022/04/22 06:54:32;;;;;;;18.40;16.50;;;14.70;90.20;;;;;;5070652;28;20653;-87
2022/04/22 06:57:00;;;;;;;16.95;15.27;;;15.40;88.30;;;;;;5055988;28;20288;-87
2022/04/22 06:59:26;;;;;;;17.52;15.73;;;16.10;84.70;;;;;;5053557;28;20227;-87
2022/04/22 07:01:52;;;;;;;17.92;16.13;;;16.50;81.20;;;;;;5060644;28;20364;-87
2022/04/22 07:04:18;;;;;;;16.47;14.83;;;17.70;78.70;;;;;;5064576;28;20188;-87
2022/04/22 07:06:44;;;;;;;16.43;14.73;;;19.10;73.40;;;;;;5059259;28;20435;-87
2022/04/22 07:09:10;;;;;;;18.48;16.60;;;20.20;69.10;;;;;;5082956;28;20469;-88
2022/04/22 07:11:38;;;;;;;15.85;14.35;;;21.10;64.70;;;;;;5059487;28;20186;-88
2022/04/22 07:14:04;;;;;;;17.45;15.85;;;21.00;63.40;;;;;;5055705;28;20209;-88
2022/04/22 07:16:30;;;;;;;16.90;15.20;;;22.20;59.10;;;;;;5054696;28;20209;-88
2022/04/22 07:18:57;;;;;;;17.47;15.77;;;22.60;57.60;;;;;;5056221;28;20454;-88
2022/04/22 07:21:23;;;;;;;17.73;16.03;;;22.30;56.70;;;;;;5057680;28;20773;-88
2022/04/22 07:23:49;;;;;;;18.07;16.37;;;21.70;57.40;;;;;;5074404;28;20454;-88
2022/04/22 07:26:17;;;;;;;18.97;17.20;;;21.10;58.20;;;;;;5049416;28;20488;-87
2022/04/22 07:28:47;;;;;;;17.37;15.77;;;21.20;58.80;;;;;;5065313;28;20542;-87
2022/04/22 07:31:16;;;;;;;17.43;15.77;;;22.40;57.30;;;;;;5074013;28;20440;-86
2022/04/22 07:33:42;;;;;;;17.23;15.63;;;23.40;55.50;;;;;;5052170;28;20466;-87
2022/04/22 07:36:08;;;;;;;19.50;17.50;;;23.50;53.80;;;;;;5057213;28;20431;-87
2022/04/22 07:38:34;;;;;;;17.97;16.37;;;22.50;55.10;;;;;;5051399;28;20201;-87
2022/04/22 07:41:00;;;;;;;18.90;17.10;;;22.10;55.40;;;;;;5058590;28;20431;-87
2022/04/22 07:48:56;;;;;;;18.57;16.87;;;22.10;56.30;;;;;;5093005;28;20482;-87
2022/04/22 07:51:26;;;;;;;18.90;17.10;;;21.50;56.60;;;;;;5067374;28;20460;-86
2022/04/22 07:53:57;;;;;;;19.07;17.17;;;23.60;55.50;;;;;;5071972;28;20489;-86
2022/04/22 07:56:24;;;;;;;17.73;16.13;;;24.00;52.70;;;;;;5073209;28;20799;-86
2022/04/22 07:58:50;;;;;;;19.20;17.13;;;22.30;53.50;;;;;;5063739;28;20462;-87
2022/04/22 08:01:15;;;;;;;19.30;17.37;;;23.00;53.90;;;;;;5058075;28;20456;-86
2022/04/22 08:03:41;;;;;;;18.77;16.60;;;23.50;52.40;;;;;;5072218;28;20427;-87
2022/04/22 08:06:06;;;;;;;19.53;17.47;;;24.10;52.30;;;;;;5073556;28;20663;-86
2022/04/22 08:08:33;;;;;;;18.60;16.90;;;25.90;51.00;;;;;;5067317;28;20206;-87
2022/04/22 08:10:58;;;;;;;18.63;16.83;;;25.70;49.80;;;;;;5048034;28;20187;-86
2022/04/22 08:13:26;;;;;;;20.10;18.30;;;25.20;50.80;;;;;;5060732;28;20473;-86
2022/04/22 08:15:51;;;;;;;19.13;17.43;;;25.30;51.00;;;;;;5053383;28;20181;-86
2022/04/22 08:18:17;;;;;;;19.57;17.77;;;25.40;49.60;;;;;;5059691;28;20460;-86
2022/04/22 08:20:43;;;;;;;18.03;16.43;;;25.10;48.70;;;;;;5074749;28;20435;-86
2022/04/22 08:23:08;;;;;;;19.87;18.10;;;26.10;48.70;;;;;;5079867;28;20192;-85
2022/04/22 08:25:34;;;;;;;19.00;17.00;;;25.30;48.10;;;;;;5070457;28;20472;-86
2022/04/22 08:28:02;;;;;;;18.10;16.40;;;25.10;49.30;;;;;;5078691;28;20215;-87
2022/04/22 08:30:28;;;;;;;17.73;16.23;;;26.30;47.70;;;;;;5071139;28;20213;-86
2022/04/22 08:32:53;;;;;;;18.57;17.03;;;26.40;46.90;;;;;;5055369;28;21026;-86
2022/04/22 08:35:19;;;;;;;17.47;15.90;;;27.10;45.80;;;;;;5079518;28;20439;-88
2022/04/22 08:37:45;;;;;;;20.37;18.37;;;26.20;45.90;;;;;;5071011;28;20509;-86
2022/04/22 08:40:11;;;;;;;19.10;17.40;;;26.80;45.90;;;;;;5067710;28;20205;-86
2022/04/22 08:42:38;;;;;;;17.30;15.80;;;25.60;47.20;;;;;;5063724;28;20574;-87
2022/04/22 08:45:06;;;;;;;19.87;18.10;;;26.40;45.90;;;;;;5061888;28;20946;-87
2022/04/22 08:50:19;;;;;;;18.40;16.70;;;25.10;48.00;;;;;;5072796;28;20852;-86
2022/04/22 08:53:21;;;;;;;18.87;17.10;;;24.20;49.40;;;;;;5042035;28;20705;-86
2022/04/22 08:55:49;;;;;;;17.67;16.17;;;23.40;50.00;;;;;;5016337;28;20450;-86
2022/04/22 08:58:15;;;;;;;17.27;15.77;;;24.80;49.30;;;;;;5056232;28;20438;-87
2022/04/22 09:00:43;;;;;;;17.00;15.40;;;27.50;47.20;;;;;;5058337;28;20457;-86
2022/04/22 09:03:09;;;;;;;17.27;15.67;;;26.00;46.80;;;;;;5052021;28;20500;-86
2022/04/22 09:05:35;;;;;;;17.00;15.43;;;25.10;46.40;;;;;;5079995;28;20438;-86
2022/04/22 09:08:01;;;;;;;16.47;14.90;;;25.90;47.00;;;;;;5060820;28;21001;-86
2022/04/22 09:10:27;;;;;;;16.77;15.27;;;26.50;45.80;;;;;;5063861;28;20483;-87
2022/04/22 09:12:55;;;;;;;16.83;15.37;;;26.60;45.10;;;;;;5069537;28;20467;-87
2022/04/22 09:15:23;;;;;;;17.53;15.93;;;27.10;45.00;;;;;;5063152;28;20196;-86
2022/04/22 09:17:48;;;;;;;17.27;15.87;;;27.20;44.10;;;;;;5042001;28;20477;-86
2022/04/22 09:20:15;;;;;;;17.50;16.00;;;27.00;44.30;;;;;;5072075;28;20461;-87
2022/04/22 09:22:44;;;;;;;16.70;15.30;;;26.50;44.50;;;;;;5071968;28;20487;-86
2022/04/22 09:25:10;;;;;;;17.63;16.13;;;26.20;45.00;;;;;;5062223;28;20958;-86
2022/04/22 09:27:37;;;;;;;15.30;13.97;;;26.30;45.10;;;;;;5055392;28;20457;-86
2022/04/22 09:30:07;;;;;;;18.73;16.93;;;25.60;46.10;;;;;;5046517;28;20473;-86
2022/04/22 09:32:34;;;;;;;14.70;13.47;;;25.30;46.50;;;;;;5054575;28;20499;-86
2022/04/22 09:35:13;;;;;;;15.20;13.80;;;25.50;45.90;;;;;;5060745;28;20441;-85
2022/04/22 09:43:25;;;;;;;15.40;14.00;;;24.50;47.80;;;;;;5067040;28;20450;-85
2022/04/22 09:45:54;;;;;;;16.70;15.20;;;23.70;48.80;;;;;;5070625;28;20458;-85
2022/04/22 09:48:22;;;;;;;16.27;14.77;;;24.00;49.40;;;;;;5070637;28;20455;-85
2022/04/22 09:50:55;;;;;;;16.90;15.30;;;24.10;49.90;;;;;;5069971;28;20443;-85
2022/04/22 09:53:33;;;;;;;15.93;14.43;;;23.80;49.90;;;;;;5069383;28;20546;-85
2022/04/22 09:56:08;;;;;;;16.37;14.97;;;24.60;48.30;;;;;;5061368;28;20530;-85
2022/04/22 09:58:34;;;;;;;16.27;14.77;;;24.20;48.90;;;;;;5055704;28;20472;-85
2022/04/22 10:01:03;;;;;;;15.43;14.13;;;23.50;49.50;;;;;;5041529;28;20432;-86
2022/04/22 10:03:33;;;;;;;16.33;15.03;;;23.70;49.00;;;;;;5050223;28;20525;-86
2022/04/22 10:05:59;;;;;;;15.57;14.27;;;23.60;49.40;;;;;;5054743;28;20855;-86
2022/04/22 10:08:28;;;;;;;15.70;14.40;;;24.30;50.00;;;;;;5051637;28;20554;-86
2022/04/22 10:10:58;;;;;;;15.63;14.20;;;23.80;49.20;;;;;;5053767;28;20439;-86
2022/04/22 10:13:29;;;;;;;15.57;14.10;;;24.10;49.10;;;;;;5073027;28;20542;-86
2022/04/22 10:15:54;;;;;;;15.07;13.73;;;23.60;49.60;;;;;;5044979;28;20436;-85
2022/04/22 10:18:22;;;;;;;15.07;13.77;;;23.30;50.10;;;;;;5061807;28;20446;-86
2022/04/22 10:20:48;;;;;;;15.73;14.33;;;23.50;51.00;;;;;;5072441;28;20692;-86
2022/04/22 10:23:14;;;;;;;16.87;15.37;;;22.50;50.60;;;;;;5059898;28;20429;-85
2022/04/22 10:25:40;;;;;;;15.40;14.00;;;21.40;52.10;;;;;;5062065;28;20908;-86
2022/04/22 10:28:08;;;;;;;16.50;14.90;;;21.60;52.90;;;;;;5061972;28;20197;-86
2022/04/22 10:30:35;;;;;;;16.60;14.80;;;21.20;53.90;;;;;;5050099;28;20457;-85
2022/04/22 10:33:02;;;;;;;14.50;13.20;;;21.50;53.80;;;;;;5064627;28;20537;-86
2022/04/22 10:35:28;;;;;;;15.50;13.90;;;22.00;53.60;;;;;;5055165;28;20441;-87
2022/04/22 10:37:54;;;;;;;15.03;13.73;;;21.70;52.60;;;;;;5057139;28;20435;-86
2022/04/22 10:40:22;;;;;;;13.40;12.00;;;22.30;52.70;;;;;;5060328;28;20193;-86
2022/04/22 10:42:52;;;;;;;14.40;13.00;;;21.50;52.70;;;;;;5074573;28;20418;-85
2022/04/22 10:48:24;;;;;;;14.70;13.40;;;23.00;52.20;;;;;;5068487;28;20457;-86
2022/04/22 10:51:00;;;;;;;14.47;13.17;;;22.70;51.60;;;;;;5052337;28;20950;-86
2022/04/22 10:53:28;;;;;;;15.00;13.60;;;22.80;51.50;;;;;;5073643;28;21083;-86
2022/04/22 10:56:14;;;;;;;14.27;12.90;;;23.30;50.70;;;;;;5061773;28;20993;-84
2022/04/22 10:58:39;;;;;;;14.13;12.93;;;23.10;50.60;;;;;;5076569;28;20709;-85
2022/04/22 11:01:05;;;;;;;14.30;13.07;;;23.80;50.10;;;;;;5067201;28;20541;-85
2022/04/22 11:03:34;;;;;;;14.00;12.90;;;24.70;49.40;;;;;;5063423;28;20193;-85
2022/04/22 11:06:01;;;;;;;15.20;13.90;;;23.80;49.20;;;;;;5067822;28;20666;-85
2022/04/22 11:08:38;;;;;;;15.40;14.10;;;23.50;50.00;;;;;;5064119;28;20462;-86
2022/04/22 11:11:17;;;;;;;14.77;13.33;;;23.90;50.00;;;;;;5064713;28;20479;-86
2022/04/22 11:13:44;;;;;;;14.70;13.27;;;24.20;49.50;;;;;;5063382;28;20465;-86
2022/04/22 11:16:26;;;;;;;15.00;13.80;;;23.80;49.50;;;;;;5055099;28;20454;-85
2022/04/22 11:19:19;;;;;;;15.93;14.43;;;22.70;50.30;;;;;;5054281;28;20829;-86
2022/04/22 11:21:47;;;;;;;16.07;14.67;;;23.10;51.20;;;;;;5062758;28;20423;-85
2022/04/22 11:24:19;;;;;;;14.27;13.03;;;23.30;51.00;;;;;;5054064;28;20861;-85
2022/04/22 11:26:46;;;;;;;14.70;13.30;;;22.80;51.30;;;;;;5066328;28;20434;-85
2022/04/22 11:29:14;;;;;;;14.80;13.40;;;22.80;52.10;;;;;;5073892;28;20470;-86
2022/04/22 11:31:42;;;;;;;16.10;14.47;;;21.90;52.60;;;;;;5067299;28;20820;-85
2022/04/22 11:34:14;;;;;;;14.30;13.07;;;22.40;53.40;;;;;;5055792;28;20462;-85
2022/04/22 11:36:49;;;;;;;13.83;12.53;;;22.60;52.90;;;;;;5071579;28;20438;-84
2022/04/22 11:39:23;;;;;;;13.10;11.90;;;23.60;52.20;;;;;;5060287;28;20438;-85
2022/04/22 11:41:53;;;;;;;13.53;12.33;;;23.10;51.20;;;;;;5066130;28;20526;-85
2022/04/22 11:44:20;;;;;;;14.23;12.93;;;23.80;51.80;;;;;;5061578;28;20442;-85
2022/04/22 11:46:46;;;;;;;13.57;12.27;;;23.80;50.70;;;;;;5054410;28;20471;-84
2022/04/22 11:49:13;;;;;;;14.70;13.50;;;23.90;50.00;;;;;;5060564;28;21037;-85
2022/04/22 11:51:41;;;;;;;15.10;13.80;;;24.10;50.70;;;;;;5072116;28;20239;-85
2022/04/22 11:54:07;;;;;;;15.10;13.80;;;23.70;51.90;;;;;;5051757;28;20482;-84
2022/04/22 11:56:35;;;;;;;14.63;13.33;;;23.00;51.90;;;;;;5062386;28;20660;-84
2022/04/22 11:59:01;;;;;;;12.87;11.77;;;22.30;52.90;;;;;;5043666;28;20821;-85
2022/04/22 12:08:00;;;;;;;12.80;11.70;;;22.70;52.90;;;;;;5073193;28;20489;-86
2022/04/22 12:09:49;;;;;;;12.18;11.05;;;21.60;53.50;;;;;;5081102;28;20204;-86
2022/04/22 12:12:15;;;;;;;14.97;13.60;;;21.40;53.20;;;;;;5060336;28;20245;-86
2022/04/22 12:14:40;;;;;;;13.40;12.20;;;22.00;53.70;;;;;;5065785;28;20186;-85
2022/04/22 12:17:06;;;;;;;14.00;12.70;;;22.50;53.70;;;;;;5067688;28;20453;-86
2022/04/22 12:19:32;;;;;;;15.07;13.77;;;22.20;53.40;;;;;;5082770;28;20223;-86
2022/04/22 12:21:59;;;;;;;12.50;11.50;;;21.40;53.60;;;;;;5081152;28;20188;-86
2022/04/22 12:24:24;;;;;;;13.52;12.23;;;21.50;54.30;;;;;;5057928;28;20201;-86
2022/04/22 12:26:53;;;;;;;15.20;13.87;;;21.20;54.30;;;;;;5054516;28;20195;-87
2022/04/22 12:29:21;;;;;;;13.52;12.15;;;21.20;54.00;;;;;;5045971;28;20216;-86
2022/04/22 12:31:53;;;;;;;14.45;12.95;;;21.40;54.10;;;;;;5060283;28;20174;-87
2022/04/22 12:34:30;;;;;;;12.18;11.07;;;21.40;53.90;;;;;;5071396;28;20213;-86
2022/04/22 12:36:57;;;;;;;12.07;10.98;;;21.20;54.30;;;;;;5073285;28;20259;-86
2022/04/22 12:39:36;;;;;;;14.45;13.07;;;21.50;54.60;;;;;;5045665;28;20760;-84
2022/04/22 12:42:02;;;;;;;13.00;11.70;;;21.90;54.80;;;;;;5055091;28;20196;-85
2022/04/22 12:44:27;;;;;;;11.95;10.95;;;20.90;54.90;;;;;;5071425;28;20177;-87
2022/04/22 12:52:33;;;;;;;13.68;12.35;;;21.10;55.00;;;;;;5072089;28;20309;-85
2022/04/22 13:00:26;;;;;;;12.55;11.45;;;20.90;54.50;;;;;;5086591;22;20233;-59
2022/04/22 13:02:52;;;;;;;12.18;11.07;;;20.80;55.70;;;;;;5085632;28;20194;-59
2022/04/22 13:05:19;;;;;;;15.23;13.67;;;21.10;55.60;;;;;;5088731;28;20237;-59
2022/04/22 13:07:51;;;;;;;12.68;11.57;;;21.50;55.00;;;;;;5089102;28;20509;-59
2022/04/22 13:10:22;;;;;;;13.20;11.90;;;21.10;54.50;;;;;;5082964;28;20733;-59
2022/04/22 13:12:48;;;;;;;12.07;11.02;;;20.60;54.00;;;;;;5085046;28;20215;-59
2022/04/22 13:15:19;;;;;;;11.98;10.85;;;21.10;55.90;;;;;;5090362;28;20172;-59
2022/04/22 13:17:47;;;;;;;11.95;10.90;;;21.10;54.80;;;;;;5084508;28;20196;-58
2022/04/22 13:20:17;;;;;;;11.35;10.35;;;22.30;55.30;;;;;;5083053;28;20180;-59
2022/04/22 13:22:43;;;;;;;10.50;9.68;;;21.10;54.70;;;;;;5073181;28;20192;-59
2022/04/22 13:25:10;;;;;;;11.20;10.20;;;21.00;54.60;;;;;;5082983;28;20560;-59
2022/04/22 13:27:37;;;;;;;10.50;9.50;;;21.10;53.70;;;;;;5082511;28;20499;-59
2022/04/22 13:30:04;;;;;;;12.85;11.60;;;21.10;54.30;;;;;;5085106;28;20812;-60
2022/04/22 13:32:29;;;;;;;11.68;10.50;;;21.00;54.00;;;;;;5084182;28;20219;-59
2022/04/22 13:34:55;;;;;;;12.10;9.60;;;20.80;54.20;;;;;;5089316;28;20246;-57
2022/04/22 13:37:21;;;;;;;10.33;9.43;;;21.10;54.30;;;;;;5088068;28;20188;-58
2022/04/22 13:39:46;;;;;;;12.83;11.20;;;21.40;53.30;;;;;;5082998;28;20450;-58
2022/04/22 13:42:12;;;;;;;11.57;10.57;;;21.70;54.40;;;;;;5085441;28;20301;-58